createdAt,value
2022-10-29T00:00:44.486Z,14.90
2022-10-29T00:03:12.022Z,14.90
2022-10-29T00:05:39.465Z,14.80
2022-10-29T00:08:06.899Z,14.80
2022-10-29T00:10:34.337Z,14.70
2022-10-29T00:13:02.583Z,14.70
2022-10-29T00:15:30.032Z,14.80
2022-10-29T00:17:57.722Z,14.90
2022-10-29T00:20:25.498Z,14.90
2022-10-29T00:22:53.561Z,14.70
2022-10-29T00:25:21.338Z,14.60
2022-10-29T00:27:48.742Z,14.80
2022-10-29T00:30:16.325Z,14.90
2022-10-29T00:32:43.808Z,14.90
2022-10-29T00:35:11.234Z,14.90
2022-10-29T00:37:38.694Z,14.90
2022-10-29T00:40:06.429Z,14.80
2022-10-29T00:42:33.816Z,14.80
2022-10-29T00:45:01.246Z,14.70
2022-10-29T00:47:31.345Z,14.70
2022-10-29T00:50:13.049Z,14.70
2022-10-29T00:52:45.529Z,14.50
2022-10-29T00:55:15.859Z,14.40
2022-10-29T00:57:48.515Z,14.40
2022-10-29T01:00:20.112Z,14.30
2022-10-29T01:02:47.623Z,14.20
2022-10-29T01:05:19.898Z,14.40
2022-10-29T01:07:47.478Z,14.30
2022-10-29T01:10:15.650Z,14.10
2022-10-29T01:13:01.831Z,14.10
2022-10-29T01:15:35.611Z,14.10
2022-10-29T01:18:12.209Z,14.10
2022-10-29T01:20:57.856Z,14.10
2022-10-29T01:23:25.394Z,14.20
2022-10-29T01:25:52.747Z,14.20
2022-10-29T01:28:38.714Z,14.20
2022-10-29T01:31:15.307Z,14.10
2022-10-29T01:33:54.924Z,14.10
2022-10-29T01:36:27.718Z,14.00
2022-10-29T01:39:04.279Z,14.00
2022-10-29T01:41:34.768Z,14.00
2022-10-29T01:44:06.015Z,14.00
2022-10-29T01:46:39.487Z,13.90
2022-10-29T01:49:10.184Z,13.70
2022-10-29T01:51:38.359Z,13.40
2022-10-29T01:54:07.967Z,13.30
2022-10-29T01:56:35.387Z,13.20
2022-10-29T01:59:04.654Z,13.30
2022-10-29T02:01:35.379Z,13.50
2022-10-29T02:04:02.865Z,13.70
2022-10-29T02:06:33.326Z,13.70
2022-10-29T02:09:13.226Z,13.80
2022-10-29T02:11:40.660Z,13.80
2022-10-29T02:14:10.664Z,13.80
2022-10-29T02:16:38.135Z,13.80
2022-10-29T02:19:05.842Z,13.70
2022-10-29T02:21:33.297Z,13.60
2022-10-29T02:24:00.668Z,13.50
2022-10-29T02:26:28.045Z,13.50
2022-10-29T02:28:55.492Z,13.50
2022-10-29T02:31:23.105Z,13.60
2022-10-29T02:33:50.501Z,13.50
2022-10-29T02:36:17.920Z,13.40
2022-10-29T02:38:45.372Z,13.20
2022-10-29T02:41:12.835Z,13.40
2022-10-29T02:43:40.227Z,13.50
2022-10-29T02:46:14.569Z,13.40
2022-10-29T02:48:42.354Z,13.20
2022-10-29T02:51:10.024Z,13.20
2022-10-29T02:53:37.452Z,13.30
2022-10-29T02:56:05.725Z,13.20
2022-10-29T02:58:33.312Z,13.40
2022-10-29T03:01:00.692Z,13.60
2022-10-29T03:03:28.095Z,13.60
2022-10-29T03:05:55.482Z,13.60
2022-10-29T03:08:22.839Z,13.50
2022-10-29T03:10:50.247Z,13.50
2022-10-29T03:13:18.260Z,13.50
2022-10-29T03:15:46.303Z,13.50
2022-10-29T03:18:13.735Z,13.30
2022-10-29T03:20:42.562Z,13.20
2022-10-29T03:23:10.110Z,13.40
2022-10-29T03:25:37.432Z,13.50
2022-10-29T03:28:05.503Z,13.50
2022-10-29T03:30:33.266Z,13.50
2022-10-29T03:33:00.644Z,13.50
2022-10-29T03:35:28.174Z,13.40
2022-10-29T03:37:55.622Z,13.50
2022-10-29T03:40:23.203Z,13.60
2022-10-29T03:42:50.647Z,13.60
2022-10-29T03:45:18.066Z,13.60
2022-10-29T03:47:45.431Z,13.40
2022-10-29T03:50:12.888Z,13.40
2022-10-29T03:52:40.310Z,13.30
2022-10-29T03:55:08.062Z,13.40
2022-10-29T03:57:35.604Z,13.40
2022-10-29T04:00:05.080Z,13.40
2022-10-29T04:02:40.383Z,13.50
2022-10-29T04:05:08.119Z,13.30
2022-10-29T04:07:35.519Z,13.30
2022-10-29T04:10:02.946Z,13.20
2022-10-29T04:12:30.344Z,13.20
2022-10-29T04:14:58.057Z,13.20
2022-10-29T04:17:25.506Z,13.20
2022-10-29T04:19:52.937Z,13.20
2022-10-29T04:30:43.086Z,13.30
2022-10-29T04:33:10.429Z,13.20
2022-10-29T04:35:37.754Z,13.10
2022-10-29T04:38:12.186Z,12.90
2022-10-29T04:40:39.637Z,13.00
2022-10-29T04:43:07.073Z,13.00
2022-10-29T04:45:34.667Z,13.00
2022-10-29T04:48:02.661Z,12.90
2022-10-29T04:50:30.673Z,13.00
2022-10-29T04:52:59.080Z,13.00
2022-10-29T04:55:27.040Z,13.00
2022-10-29T04:57:54.809Z,13.00
2022-10-29T05:00:22.948Z,13.00
2022-10-29T05:02:51.021Z,13.10
2022-10-29T05:05:19.394Z,13.00
2022-10-29T05:07:47.225Z,13.00
2022-10-29T05:10:14.876Z,12.90
2022-10-29T05:12:42.255Z,12.80
2022-10-29T05:15:09.858Z,12.80
2022-10-29T05:17:38.804Z,12.90
2022-10-29T05:20:06.528Z,12.80
2022-10-29T05:22:33.947Z,12.60
2022-10-29T05:25:01.349Z,12.60
2022-10-29T05:27:28.830Z,12.60
2022-10-29T05:29:56.151Z,12.50
2022-10-29T05:32:23.625Z,12.40
2022-10-29T05:34:51.025Z,12.30
2022-10-29T05:37:18.490Z,12.30
2022-10-29T05:39:45.909Z,12.40
2022-10-29T05:42:13.399Z,12.30
2022-10-29T05:44:40.779Z,12.40
2022-10-29T05:47:08.370Z,12.30
2022-10-29T05:49:35.781Z,12.50
2022-10-29T05:52:03.357Z,12.30
2022-10-29T05:54:30.847Z,12.40
2022-10-29T05:56:58.727Z,12.30
2022-10-29T05:59:31.015Z,12.40
2022-10-29T06:02:01.166Z,12.60
2022-10-29T06:04:28.644Z,12.60
2022-10-29T06:06:56.203Z,12.60
2022-10-29T06:09:23.726Z,12.80
2022-10-29T06:11:51.122Z,12.80
2022-10-29T06:14:18.554Z,12.70
2022-10-29T06:16:46.204Z,12.70
2022-10-29T06:19:13.669Z,12.80
2022-10-29T06:21:41.069Z,12.90
2022-10-29T06:24:08.730Z,12.80
2022-10-29T06:26:37.497Z,12.70
2022-10-29T06:29:04.974Z,12.80
2022-10-29T06:31:32.404Z,12.90
2022-10-29T06:33:59.735Z,12.80
2022-10-29T06:36:27.151Z,12.80
2022-10-29T06:38:54.512Z,12.90
2022-10-29T06:41:25.285Z,13.00
2022-10-29T06:43:53.002Z,12.90
2022-10-29T06:46:20.389Z,12.90
2022-10-29T06:48:47.821Z,13.00
2022-10-29T06:51:15.471Z,13.10
2022-10-29T06:53:42.907Z,13.30
2022-10-29T06:56:10.392Z,13.40
2022-10-29T06:58:37.787Z,13.30
2022-10-29T07:01:05.447Z,13.40
2022-10-29T07:03:32.808Z,13.50
2022-10-29T07:06:00.258Z,13.60
2022-10-29T07:08:29.044Z,13.80
2022-10-29T07:10:56.594Z,13.90
2022-10-29T07:13:24.032Z,14.00
2022-10-29T07:15:51.510Z,14.20
2022-10-29T07:18:19.263Z,14.30
2022-10-29T07:20:46.735Z,14.20
2022-10-29T07:23:14.433Z,14.30
2022-10-29T07:25:42.218Z,14.30
2022-10-29T07:28:14.450Z,14.40
2022-10-29T07:30:42.597Z,14.50
2022-10-29T07:33:10.291Z,14.40
2022-10-29T07:35:37.745Z,14.70
2022-10-29T07:38:10.080Z,14.90
2022-10-29T07:40:39.743Z,14.80
2022-10-29T07:43:07.131Z,14.80
2022-10-29T07:45:34.544Z,14.80
2022-10-29T07:48:03.391Z,14.90
2022-10-29T07:50:32.076Z,14.90
2022-10-29T07:53:00.483Z,15.00
2022-10-29T07:57:58.895Z,15.20
2022-10-29T08:00:26.498Z,15.30
2022-10-29T08:02:54.734Z,15.50
2022-10-29T08:05:22.657Z,15.60
2022-10-29T08:07:50.272Z,15.40
2022-10-29T08:10:17.651Z,15.40
2022-10-29T08:12:52.113Z,15.50
2022-10-29T08:15:19.920Z,15.70
2022-10-29T08:17:47.496Z,15.70
2022-10-29T08:20:15.212Z,15.70
2022-10-29T08:22:42.621Z,15.70
2022-10-29T08:25:10.738Z,15.80
2022-10-29T08:27:38.136Z,15.90
2022-10-29T08:30:06.783Z,15.90
2022-10-29T08:32:34.226Z,16.10
2022-10-29T08:35:02.076Z,16.10
2022-10-29T08:37:29.503Z,16.20
2022-10-29T08:39:57.603Z,16.30
2022-10-29T08:42:42.523Z,16.40
2022-10-29T08:45:22.148Z,16.50
2022-10-29T08:47:52.831Z,16.60
2022-10-29T08:50:23.565Z,16.70
2022-10-29T08:52:58.949Z,16.80
2022-10-29T08:55:38.958Z,16.90
2022-10-29T08:58:26.643Z,17.00
2022-10-29T09:00:55.835Z,17.10
2022-10-29T09:03:25.687Z,17.10
2022-10-29T09:05:56.219Z,17.20
2022-10-29T09:08:29.844Z,17.30
2022-10-29T09:10:58.449Z,17.30
2022-10-29T09:13:32.287Z,17.40
2022-10-29T09:16:18.193Z,17.40
2022-10-29T09:19:04.475Z,17.60
2022-10-29T09:21:31.894Z,17.70
2022-10-29T09:24:03.842Z,17.80
2022-10-29T09:26:32.770Z,18.00
2022-10-29T09:29:02.898Z,18.10
2022-10-29T09:31:34.710Z,18.30
2022-10-29T09:34:04.346Z,18.30
2022-10-29T09:36:31.929Z,18.50
2022-10-29T09:39:02.668Z,18.60
2022-10-29T09:41:34.418Z,18.50
2022-10-29T09:44:06.381Z,18.60
2022-10-29T09:47:08.583Z,18.70
2022-10-29T09:49:55.789Z,18.80
2022-10-29T09:52:24.642Z,18.80
2022-10-29T09:54:53.378Z,18.90
2022-10-29T09:57:25.566Z,19.00
2022-10-29T10:00:00.557Z,19.10
2022-10-29T10:02:37.992Z,19.20
2022-10-29T10:05:07.219Z,19.20
2022-10-29T10:07:34.707Z,19.30
2022-10-29T10:10:04.226Z,19.40
2022-10-29T10:12:37.790Z,19.40
2022-10-29T10:15:28.527Z,19.50
2022-10-29T10:18:03.244Z,19.70
2022-10-29T10:20:33.823Z,19.80
2022-10-29T10:23:01.683Z,20.20
2022-10-29T10:25:32.337Z,20.30
2022-10-29T10:28:03.390Z,20.40
2022-10-29T10:30:30.756Z,20.50
2022-10-29T10:33:30.671Z,20.50
2022-10-29T10:36:02.872Z,20.50
2022-10-29T10:38:37.933Z,20.60
2022-10-29T10:41:07.398Z,20.70
2022-10-29T10:43:35.344Z,20.80
2022-10-29T10:46:10.401Z,21.00
2022-10-29T10:48:37.930Z,21.10
2022-10-29T10:51:25.593Z,21.20
2022-10-29T10:53:53.231Z,21.40
2022-10-29T10:56:21.916Z,21.50
2022-10-29T10:58:56.360Z,21.60
2022-10-29T11:01:30.474Z,21.80
2022-10-29T11:03:57.990Z,21.80
2022-10-29T11:06:45.280Z,22.00
2022-10-29T11:09:12.714Z,22.20
2022-10-29T11:11:42.428Z,22.40
2022-10-29T11:14:15.971Z,22.30
2022-10-29T11:16:52.236Z,22.40
2022-10-29T11:19:35.826Z,22.60
2022-10-29T11:22:19.658Z,22.80
2022-10-29T11:24:49.862Z,22.90
2022-10-29T11:27:35.988Z,23.20
2022-10-29T11:30:06.557Z,23.20
2022-10-29T11:32:54.734Z,23.30
2022-10-29T11:35:30.205Z,23.50
2022-10-29T11:38:00.563Z,23.50
2022-10-29T11:40:46.483Z,23.70
2022-10-29T11:43:14.942Z,23.70
2022-10-29T11:45:54.254Z,23.80
2022-10-29T11:48:39.559Z,24.00
2022-10-29T11:51:07.464Z,24.10
2022-10-29T11:53:53.120Z,24.30
2022-10-29T11:56:22.659Z,24.40
2022-10-29T11:59:08.183Z,24.30
2022-10-29T12:01:45.026Z,24.30
2022-10-29T12:04:38.921Z,24.40
2022-10-29T12:07:09.272Z,24.40
2022-10-29T12:09:39.799Z,24.50
2022-10-29T12:12:18.256Z,24.60
2022-10-29T12:14:55.376Z,24.80
2022-10-29T12:17:36.824Z,24.90
2022-10-29T12:20:07.639Z,24.90
2022-10-29T12:22:38.825Z,25.10
2022-10-29T12:25:15.598Z,25.00
2022-10-29T12:27:51.433Z,25.30
2022-10-29T12:30:20.601Z,25.30
2022-10-29T12:32:51.128Z,25.30
2022-10-29T12:35:22.920Z,25.30
2022-10-29T12:38:09.213Z,25.40
2022-10-29T12:40:38.609Z,25.20
2022-10-29T12:43:07.682Z,25.30
2022-10-29T12:46:19.509Z,25.40
2022-10-29T12:48:55.961Z,25.50
2022-10-29T12:51:29.498Z,25.50
2022-10-29T12:54:14.632Z,25.60
2022-10-29T12:56:45.063Z,25.80
2022-10-29T12:59:24.693Z,25.70
2022-10-29T13:04:59.562Z,25.50
2022-10-29T13:07:26.964Z,25.40
2022-10-29T13:10:13.119Z,25.30
2022-10-29T13:13:00.050Z,25.30
2022-10-29T13:15:45.922Z,25.20
2022-10-29T13:18:13.666Z,25.40
2022-10-29T13:20:43.218Z,25.40
2022-10-29T13:23:23.051Z,25.40
2022-10-29T13:25:51.136Z,25.30
2022-10-29T13:28:19.033Z,25.20
2022-10-29T13:30:51.372Z,25.30
2022-10-29T13:33:21.827Z,25.20
2022-10-29T13:35:53.312Z,25.10
2022-10-29T13:38:51.173Z,25.10
2022-10-29T13:41:39.941Z,25.10
2022-10-29T13:44:07.323Z,25.10
2022-10-29T13:46:53.535Z,25.20
2022-10-29T13:49:32.065Z,25.30
2022-10-29T13:52:01.721Z,25.10
2022-10-29T13:54:32.305Z,25.00
2022-10-29T13:57:09.052Z,25.00
2022-10-29T13:59:40.132Z,25.00
2022-10-29T14:02:21.748Z,24.90
2022-10-29T14:04:51.077Z,24.80
2022-10-29T14:07:21.507Z,24.60
2022-10-29T14:10:01.648Z,24.60
2022-10-29T14:12:31.273Z,24.50
2022-10-29T14:15:07.023Z,24.60
2022-10-29T14:17:34.545Z,24.60
2022-10-29T14:20:02.086Z,24.60
2022-10-29T14:22:35.776Z,24.50
2022-10-29T14:25:21.171Z,24.60
2022-10-29T14:28:07.619Z,24.60
2022-10-29T14:30:35.276Z,24.40
2022-10-29T14:33:02.796Z,24.40
2022-10-29T14:35:30.300Z,24.30
2022-10-29T14:37:57.999Z,24.30
2022-10-29T14:40:25.694Z,24.20
2022-10-29T14:42:55.778Z,24.20
2022-10-29T14:45:25.523Z,24.10
2022-10-29T14:47:54.139Z,24.10
2022-10-29T14:50:23.331Z,24.10
2022-10-29T14:52:53.898Z,24.10
2022-10-29T14:55:24.257Z,24.10
2022-10-29T14:58:00.770Z,24.00
2022-10-29T15:00:30.258Z,24.00
2022-10-29T15:02:58.253Z,24.00
2022-10-29T15:05:27.578Z,24.00
2022-10-29T15:08:05.106Z,23.80
2022-10-29T15:10:32.953Z,23.80
2022-10-29T15:13:14.056Z,23.70
2022-10-29T15:15:51.120Z,23.70
2022-10-29T15:18:21.194Z,23.60
2022-10-29T15:20:48.651Z,23.40
2022-10-29T15:23:19.276Z,23.30
2022-10-29T15:25:48.015Z,23.20
2022-10-29T15:28:21.539Z,23.20
2022-10-29T15:30:49.033Z,23.00
2022-10-29T15:33:18.249Z,23.10
2022-10-29T15:35:57.058Z,22.90
2022-10-29T15:38:30.558Z,22.80
2022-10-29T15:41:18.421Z,22.70
2022-10-29T15:43:50.098Z,22.60
2022-10-29T15:46:24.826Z,22.40
2022-10-29T15:48:52.312Z,22.30
2022-10-29T15:51:27.026Z,22.10
2022-10-29T15:53:58.481Z,22.10
2022-10-29T15:56:26.177Z,22.00
2022-10-29T15:58:53.595Z,21.80
2022-10-29T16:01:21.064Z,21.70
2022-10-29T16:03:48.588Z,21.60
2022-10-29T16:06:16.139Z,21.40
2022-10-29T16:08:46.165Z,21.30
2022-10-29T16:11:17.961Z,21.20
2022-10-29T16:13:46.345Z,21.30
2022-10-29T16:16:20.363Z,21.30
2022-10-29T16:18:49.208Z,21.10
2022-10-29T16:21:18.863Z,20.90
2022-10-29T16:23:46.461Z,20.90
2022-10-29T16:26:17.608Z,20.80
2022-10-29T16:28:45.213Z,20.80
2022-10-29T16:31:23.255Z,20.70
2022-10-29T16:33:51.562Z,20.60
2022-10-29T16:36:18.952Z,20.50
2022-10-29T16:38:46.433Z,20.40
2022-10-29T16:41:15.094Z,20.30
2022-10-29T16:43:42.956Z,20.20
2022-10-29T16:46:11.209Z,20.20
2022-10-29T16:48:38.795Z,20.20
2022-10-29T16:51:06.570Z,20.10
2022-10-29T16:53:34.273Z,20.00
2022-10-29T16:56:01.812Z,19.90
2022-10-29T16:58:29.436Z,19.90
2022-10-29T17:01:07.120Z,19.90
2022-10-29T17:03:35.514Z,19.80
2022-10-29T17:06:06.953Z,19.80
2022-10-29T17:08:34.682Z,19.80
2022-10-29T17:11:02.681Z,19.90
2022-10-29T17:13:30.148Z,19.80
2022-10-29T17:15:57.613Z,19.70
2022-10-29T17:18:25.166Z,19.70
2022-10-29T17:20:58.653Z,19.60
2022-10-29T17:23:26.185Z,19.60
2022-10-29T17:25:54.667Z,19.60
2022-10-29T17:28:22.697Z,19.60
2022-10-29T17:30:50.095Z,19.50
2022-10-29T17:33:17.548Z,19.50
2022-10-29T17:35:45.248Z,19.40
2022-10-29T17:38:12.684Z,19.50
2022-10-29T17:40:43.117Z,19.50
2022-10-29T17:43:10.529Z,19.50
2022-10-29T17:45:37.949Z,19.30
2022-10-29T17:48:05.563Z,19.20
2022-10-29T17:50:33.079Z,19.20
2022-10-29T17:53:00.489Z,19.00
2022-10-29T17:55:27.909Z,19.00
2022-10-29T17:57:55.594Z,19.00
2022-10-29T18:00:23.337Z,19.00
2022-10-29T18:02:53.684Z,19.00
2022-10-29T18:05:21.215Z,19.00
2022-10-29T18:07:48.620Z,19.00
2022-10-29T18:10:17.329Z,19.00
2022-10-29T18:12:44.807Z,18.90
2022-10-29T18:15:12.294Z,18.90
2022-10-29T18:17:40.859Z,18.80
2022-10-29T18:20:08.823Z,18.80
2022-10-29T18:22:36.605Z,18.80
2022-10-29T18:25:04.131Z,18.60
2022-10-29T18:27:31.570Z,18.60
2022-10-29T18:29:58.909Z,18.50
2022-10-29T18:32:26.417Z,18.50
2022-10-29T18:34:53.807Z,18.60
2022-10-29T18:37:21.276Z,18.40
2022-10-29T18:39:48.641Z,18.30
2022-10-29T18:42:16.008Z,18.20
2022-10-29T18:44:43.404Z,18.20
2022-10-29T18:47:10.755Z,18.10
2022-10-29T18:49:38.197Z,18.10
2022-10-29T18:52:05.605Z,18.10
2022-10-29T18:54:33.158Z,18.00
2022-10-29T18:57:00.623Z,17.90
2022-10-29T18:59:27.998Z,17.90
2022-10-29T19:01:55.489Z,17.90
2022-10-29T19:04:23.088Z,17.90
2022-10-29T19:06:50.459Z,17.80
2022-10-29T19:09:17.868Z,17.80
2022-10-29T19:11:45.241Z,17.80
2022-10-29T19:14:13.216Z,17.90
2022-10-29T19:16:40.572Z,17.80
2022-10-29T19:19:10.571Z,17.70
2022-10-29T19:21:38.769Z,17.80
2022-10-29T19:24:06.843Z,17.70
2022-10-29T19:26:35.050Z,17.80
2022-10-29T19:29:03.332Z,17.80
2022-10-29T19:31:31.386Z,17.90
2022-10-29T19:34:00.393Z,17.90
2022-10-29T19:36:28.777Z,17.70
2022-10-29T19:38:56.613Z,17.50
2022-10-29T19:41:24.178Z,17.40
2022-10-29T19:43:51.598Z,17.40
2022-10-29T19:46:22.926Z,17.40
2022-10-29T19:48:51.202Z,17.30
2022-10-29T19:51:18.920Z,17.30
2022-10-29T19:53:46.606Z,17.40
2022-10-29T19:56:14.981Z,17.30
2022-10-29T19:58:42.359Z,17.10
2022-10-29T20:01:16.275Z,17.10
2022-10-29T20:03:44.471Z,16.90
2022-10-29T20:06:11.871Z,17.00
2022-10-29T20:08:39.496Z,17.10
2022-10-29T20:11:06.953Z,16.90
2022-10-29T20:13:34.429Z,16.80
2022-10-29T20:16:06.989Z,16.70
2022-10-29T20:18:35.967Z,16.70
2022-10-29T20:21:03.460Z,16.70
2022-10-29T20:23:30.917Z,16.80
2022-10-29T20:25:58.345Z,16.80
2022-10-29T20:28:25.885Z,16.70
2022-10-29T20:31:11.523Z,16.70
2022-10-29T20:33:39.004Z,16.60
2022-10-29T20:36:06.544Z,16.60
2022-10-29T20:38:34.012Z,16.60
2022-10-29T20:41:01.480Z,16.60
2022-10-29T20:43:28.892Z,16.60
2022-10-29T20:46:01.097Z,16.60
2022-10-29T20:48:28.957Z,16.70
2022-10-29T20:50:56.682Z,16.60
2022-10-29T20:53:24.038Z,16.70
2022-10-29T20:55:51.925Z,16.80
2022-10-29T20:58:19.934Z,16.70
2022-10-29T21:00:47.488Z,16.70
2022-10-29T21:03:15.860Z,16.60
2022-10-29T21:05:43.572Z,16.50
2022-10-29T21:08:11.086Z,16.60
2022-10-29T21:10:38.711Z,16.60
2022-10-29T21:13:06.157Z,16.50
2022-10-29T21:15:36.614Z,16.60
2022-10-29T21:18:04.156Z,16.50
2022-10-29T21:20:32.667Z,16.50
2022-10-29T21:23:00.494Z,16.50
2022-10-29T21:25:28.258Z,16.40
2022-10-29T21:27:56.008Z,16.30
2022-10-29T21:30:23.717Z,16.20
2022-10-29T21:32:52.251Z,16.30
2022-10-29T21:35:19.618Z,16.40
2022-10-29T21:37:47.090Z,16.40
2022-10-29T21:40:14.650Z,16.40
2022-10-29T21:42:42.079Z,16.50
2022-10-29T21:45:09.692Z,16.60
2022-10-29T21:47:37.178Z,16.50
2022-10-29T21:50:04.707Z,16.50
2022-10-29T21:52:32.302Z,16.30
2022-10-29T21:54:59.747Z,16.10
2022-10-29T21:57:27.144Z,16.00
2022-10-29T21:59:54.617Z,16.20
2022-10-29T22:02:22.229Z,16.10
2022-10-29T22:04:49.666Z,16.20
2022-10-29T22:07:17.170Z,16.30
2022-10-29T22:09:44.591Z,16.40
2022-10-29T22:12:12.079Z,16.30
2022-10-29T22:14:39.466Z,16.20
2022-10-29T22:17:06.897Z,16.30
2022-10-29T22:19:34.274Z,16.30
2022-10-29T22:22:01.711Z,16.30
2022-10-29T22:24:29.096Z,16.20
2022-10-29T22:26:56.580Z,16.10
2022-10-29T22:29:24.042Z,16.00
2022-10-29T22:31:51.485Z,15.90
2022-10-29T22:34:19.357Z,15.90
2022-10-29T22:36:46.716Z,16.00
2022-10-29T22:39:14.226Z,16.00
2022-10-29T22:41:41.638Z,16.00
2022-10-29T22:44:09.010Z,16.00
2022-10-29T22:46:36.463Z,16.00
2022-10-29T22:49:04.046Z,15.90
2022-10-29T22:51:32.755Z,15.90
2022-10-29T22:54:00.645Z,15.80
2022-10-29T22:56:29.441Z,15.60
2022-10-29T22:58:57.246Z,15.60
2022-10-29T23:01:26.051Z,15.80
2022-10-29T23:03:53.771Z,15.80
2022-10-29T23:06:22.395Z,15.70
2022-10-29T23:08:53.754Z,15.70
2022-10-29T23:11:25.584Z,15.80
2022-10-29T23:14:00.417Z,15.70
2022-10-29T23:16:29.097Z,15.70
2022-10-29T23:18:57.548Z,15.60
2022-10-29T23:21:24.971Z,15.70
2022-10-29T23:23:52.800Z,15.80
2022-10-29T23:26:21.060Z,15.70
2022-10-29T23:28:49.153Z,15.60
2022-10-29T23:31:20.241Z,15.70
2022-10-29T23:33:48.581Z,15.60
2022-10-29T23:36:16.433Z,15.60
2022-10-29T23:38:44.211Z,15.50
2022-10-29T23:41:12.115Z,15.60
2022-10-29T23:43:39.939Z,15.60
2022-10-29T23:46:07.269Z,15.50
2022-10-29T23:48:34.722Z,15.50
2022-10-29T23:51:02.118Z,15.40
2022-10-29T23:53:29.544Z,15.50
2022-10-29T23:55:57.003Z,15.50
2022-10-29T23:58:24.633Z,15.40
